sensor_id;sensor_type;location;lat;lon;timestamp;temperature;humidity
29729;DHT22;20055;51.498;11.960;2023-11-19T00:00:59;6.90;99.90
29729;DHT22;20055;51.498;11.960;2023-11-19T00:03:26;6.80;99.90
29729;DHT22;20055;51.498;11.960;2023-11-19T00:05:52;6.80;99.90
29729;DHT22;20055;51.498;11.960;2023-11-19T00:08:18;6.80;99.90
29729;DHT22;20055;51.498;11.960;2023-11-19T00:10:45;6.80;99.90
29729;DHT22;20055;51.498;11.960;2023-11-19T00:13:12;6.70;99.90
29729;DHT22;20055;51.498;11.960;2023-11-19T00:15:38;6.70;99.90
29729;DHT22;20055;51.498;11.960;2023-11-19T00:18:05;6.70;99.90
29729;DHT22;20055;51.498;11.960;2023-11-19T00:20:31;6.70;99.90
29729;DHT22;20055;51.498;11.960;2023-11-19T00:22:57;6.70;99.90
29729;DHT22;20055;51.498;11.960;2023-11-19T00:25:24;6.80;99.90
29729;DHT22;20055;51.498;11.960;2023-11-19T00:27:51;6.60;99.90
29729;DHT22;20055;51.498;11.960;2023-11-19T00:30:19;6.60;99.90
29729;DHT22;20055;51.498;11.960;2023-11-19T00:32:45;6.60;99.90
29729;DHT22;20055;51.498;11.960;2023-11-19T00:35:12;6.70;99.90
29729;DHT22;20055;51.498;11.960;2023-11-19T00:37:40;6.60;99.90
29729;DHT22;20055;51.498;11.960;2023-11-19T00:40:09;6.70;99.90
29729;DHT22;20055;51.498;11.960;2023-11-19T00:42:36;6.80;99.90
29729;DHT22;20055;51.498;11.960;2023-11-19T00:45:05;6.70;99.90
29729;DHT22;20055;51.498;11.960;2023-11-19T00:47:35;6.70;99.90
29729;DHT22;20055;51.498;11.960;2023-11-19T00:50:05;6.70;99.90
29729;DHT22;20055;51.498;11.960;2023-11-19T00:52:32;6.70;99.90
29729;DHT22;20055;51.498;11.960;2023-11-19T00:54:58;6.80;99.90
29729;DHT22;20055;51.498;11.960;2023-11-19T00:57:25;6.80;99.90
29729;DHT22;20055;51.498;11.960;2023-11-19T00:59:52;6.60;99.90
29729;DHT22;20055;51.498;11.960;2023-11-19T01:02:19;6.50;99.90
29729;DHT22;20055;51.498;11.960;2023-11-19T01:04:45;6.60;99.90
29729;DHT22;20055;51.498;11.960;2023-11-19T01:07:12;6.70;99.90
29729;DHT22;20055;51.498;11.960;2023-11-19T01:09:41;6.70;99.90
29729;DHT22;20055;51.498;11.960;2023-11-19T01:12:07;6.70;99.90
29729;DHT22;20055;51.498;11.960;2023-11-19T01:14:34;6.70;99.90
29729;DHT22;20055;51.498;11.960;2023-11-19T01:17:01;6.60;99.90
29729;DHT22;20055;51.498;11.960;2023-11-19T01:19:28;6.70;99.90
29729;DHT22;20055;51.498;11.960;2023-11-19T01:21:54;6.70;99.90
29729;DHT22;20055;51.498;11.960;2023-11-19T01:24:22;6.40;99.90
29729;DHT22;20055;51.498;11.960;2023-11-19T01:26:48;6.30;99.90
29729;DHT22;20055;51.498;11.960;2023-11-19T01:29:15;6.20;99.90
29729;DHT22;20055;51.498;11.960;2023-11-19T01:31:46;6.40;99.90
29729;DHT22;20055;51.498;11.960;2023-11-19T01:34:17;6.50;99.90
29729;DHT22;20055;51.498;11.960;2023-11-19T01:36:43;6.40;99.90
29729;DHT22;20055;51.498;11.960;2023-11-19T01:39:10;6.30;99.90
29729;DHT22;20055;51.498;11.960;2023-11-19T01:41:36;6.50;99.90
29729;DHT22;20055;51.498;11.960;2023-11-19T01:44:03;6.60;99.90
29729;DHT22;20055;51.498;11.960;2023-11-19T01:46:30;6.60;99.90
29729;DHT22;20055;51.498;11.960;2023-11-19T01:48:59;6.70;99.90
29729;DHT22;20055;51.498;11.960;2023-11-19T01:51:26;6.60;99.90
29729;DHT22;20055;51.498;11.960;2023-11-19T01:53:54;6.80;99.90
29729;DHT22;20055;51.498;11.960;2023-11-19T01:56:21;6.70;99.90
29729;DHT22;20055;51.498;11.960;2023-11-19T01:58:49;6.70;99.90
29729;DHT22;20055;51.498;11.960;2023-11-19T02:01:16;6.80;99.90
29729;DHT22;20055;51.498;11.960;2023-11-19T02:03:43;6.80;99.90
29729;DHT22;20055;51.498;11.960;2023-11-19T02:06:10;6.80;99.90
29729;DHT22;20055;51.498;11.960;2023-11-19T02:08:36;6.80;99.90
29729;DHT22;20055;51.498;11.960;2023-11-19T02:11:05;6.80;99.90
29729;DHT22;20055;51.498;11.960;2023-11-19T02:13:33;6.80;99.90
29729;DHT22;20055;51.498;11.960;2023-11-19T02:15:59;6.60;99.90
29729;DHT22;20055;51.498;11.960;2023-11-19T02:18:28;6.60;99.90
29729;DHT22;20055;51.498;11.960;2023-11-19T02:20:58;6.50;99.90
29729;DHT22;20055;51.498;11.960;2023-11-19T02:23:28;6.60;99.90
29729;DHT22;20055;51.498;11.960;2023-11-19T02:28:36;6.60;99.90
29729;DHT22;20055;51.498;11.960;2023-11-19T02:31:03;6.60;99.90
29729;DHT22;20055;51.498;11.960;2023-11-19T02:33:31;6.60;99.90
29729;DHT22;20055;51.498;11.960;2023-11-19T02:35:57;6.70;99.90
29729;DHT22;20055;51.498;11.960;2023-11-19T02:38:23;6.80;99.90
29729;DHT22;20055;51.498;11.960;2023-11-19T02:40:49;6.90;99.90
29729;DHT22;20055;51.498;11.960;2023-11-19T02:43:16;7.00;99.90
29729;DHT22;20055;51.498;11.960;2023-11-19T02:45:42;7.10;99.90
29729;DHT22;20055;51.498;11.960;2023-11-19T02:48:11;7.10;99.90
29729;DHT22;20055;51.498;11.960;2023-11-19T02:50:38;7.00;99.90
29729;DHT22;20055;51.498;11.960;2023-11-19T02:53:04;7.00;99.90
29729;DHT22;20055;51.498;11.960;2023-11-19T02:55:32;7.10;99.90
29729;DHT22;20055;51.498;11.960;2023-11-19T02:58:06;7.20;99.90
29729;DHT22;20055;51.498;11.960;2023-11-19T03:00:46;7.20;99.90
29729;DHT22;20055;51.498;11.960;2023-11-19T03:03:24;7.30;99.90
29729;DHT22;20055;51.498;11.960;2023-11-19T03:05:55;7.20;99.90
29729;DHT22;20055;51.498;11.960;2023-11-19T03:08:21;7.30;99.90
29729;DHT22;20055;51.498;11.960;2023-11-19T03:10:48;7.30;99.90
29729;DHT22;20055;51.498;11.960;2023-11-19T03:13:15;7.50;99.90
29729;DHT22;20055;51.498;11.960;2023-11-19T03:15:41;7.50;99.90
29729;DHT22;20055;51.498;11.960;2023-11-19T03:18:08;7.60;99.90
29729;DHT22;20055;51.498;11.960;2023-11-19T03:20:35;7.60;99.90
29729;DHT22;20055;51.498;11.960;2023-11-19T03:23:01;7.50;99.90
29729;DHT22;20055;51.498;11.960;2023-11-19T03:25:28;7.50;99.90
29729;DHT22;20055;51.498;11.960;2023-11-19T03:28:01;7.50;99.90
29729;DHT22;20055;51.498;11.960;2023-11-19T03:30:28;7.50;99.90
29729;DHT22;20055;51.498;11.960;2023-11-19T03:32:58;7.50;99.90
29729;DHT22;20055;51.498;11.960;2023-11-19T03:35:24;7.40;99.90
29729;DHT22;20055;51.498;11.960;2023-11-19T03:37:51;7.40;99.90
29729;DHT22;20055;51.498;11.960;2023-11-19T03:40:18;7.40;99.90
29729;DHT22;20055;51.498;11.960;2023-11-19T03:42:48;7.50;99.90
29729;DHT22;20055;51.498;11.960;2023-11-19T03:45:14;7.40;99.90
29729;DHT22;20055;51.498;11.960;2023-11-19T03:47:42;7.40;99.90
29729;DHT22;20055;51.498;11.960;2023-11-19T03:50:09;7.40;99.90
29729;DHT22;20055;51.498;11.960;2023-11-19T03:52:35;7.40;99.90
29729;DHT22;20055;51.498;11.960;2023-11-19T03:55:02;7.40;99.90
29729;DHT22;20055;51.498;11.960;2023-11-19T03:57:31;7.50;99.90
29729;DHT22;20055;51.498;11.960;2023-11-19T03:59:58;7.50;99.90
29729;DHT22;20055;51.498;11.960;2023-11-19T04:02:24;7.50;99.90
29729;DHT22;20055;51.498;11.960;2023-11-19T04:04:54;7.60;99.90
29729;DHT22;20055;51.498;11.960;2023-11-19T04:07:21;7.70;99.90
29729;DHT22;20055;51.498;11.960;2023-11-19T04:09:47;7.60;99.90
29729;DHT22;20055;51.498;11.960;2023-11-19T04:12:14;7.70;99.90
29729;DHT22;20055;51.498;11.960;2023-11-19T04:14:41;7.70;99.90
29729;DHT22;20055;51.498;11.960;2023-11-19T04:17:07;7.80;99.90
29729;DHT22;20055;51.498;11.960;2023-11-19T04:19:34;7.80;99.90
29729;DHT22;20055;51.498;11.960;2023-11-19T04:22:00;7.80;99.90
29729;DHT22;20055;51.498;11.960;2023-11-19T04:24:27;7.80;99.90
29729;DHT22;20055;51.498;11.960;2023-11-19T04:26:53;7.80;99.90
29729;DHT22;20055;51.498;11.960;2023-11-19T04:29:19;7.80;99.90
29729;DHT22;20055;51.498;11.960;2023-11-19T04:31:45;7.80;99.90
29729;DHT22;20055;51.498;11.960;2023-11-19T04:34:12;7.90;99.90
29729;DHT22;20055;51.498;11.960;2023-11-19T04:36:38;7.90;99.90
29729;DHT22;20055;51.498;11.960;2023-11-19T04:39:05;7.90;99.90
29729;DHT22;20055;51.498;11.960;2023-11-19T04:41:51;7.90;99.90
29729;DHT22;20055;51.498;11.960;2023-11-19T04:44:20;7.90;99.90
29729;DHT22;20055;51.498;11.960;2023-11-19T04:46:47;7.90;99.90
29729;DHT22;20055;51.498;11.960;2023-11-19T04:49:14;8.00;99.90
29729;DHT22;20055;51.498;11.960;2023-11-19T04:51:41;8.00;99.90
29729;DHT22;20055;51.498;11.960;2023-11-19T04:54:10;8.10;99.90
29729;DHT22;20055;51.498;11.960;2023-11-19T04:56:37;8.10;99.90
29729;DHT22;20055;51.498;11.960;2023-11-19T04:59:04;8.10;99.90
29729;DHT22;20055;51.498;11.960;2023-11-19T05:01:32;8.10;99.90
29729;DHT22;20055;51.498;11.960;2023-11-19T05:03:59;8.00;99.90
29729;DHT22;20055;51.498;11.960;2023-11-19T05:06:30;8.00;99.90
29729;DHT22;20055;51.498;11.960;2023-11-19T05:08:59;8.00;99.90
29729;DHT22;20055;51.498;11.960;2023-11-19T05:11:27;7.90;99.90
29729;DHT22;20055;51.498;11.960;2023-11-19T05:13:54;8.10;99.90
29729;DHT22;20055;51.498;11.960;2023-11-19T05:16:20;8.10;99.90
29729;DHT22;20055;51.498;11.960;2023-11-19T05:18:47;8.00;99.90
29729;DHT22;20055;51.498;11.960;2023-11-19T05:21:13;8.00;99.90
29729;DHT22;20055;51.498;11.960;2023-11-19T05:23:39;8.10;99.90
29729;DHT22;20055;51.498;11.960;2023-11-19T05:26:08;8.20;99.90
29729;DHT22;20055;51.498;11.960;2023-11-19T05:28:35;8.20;99.90
29729;DHT22;20055;51.498;11.960;2023-11-19T05:31:01;8.20;99.90
29729;DHT22;20055;51.498;11.960;2023-11-19T05:33:27;8.20;99.90
29729;DHT22;20055;51.498;11.960;2023-11-19T05:35:54;8.30;99.90
29729;DHT22;20055;51.498;11.960;2023-11-19T05:38:20;8.40;99.90
29729;DHT22;20055;51.498;11.960;2023-11-19T05:40:47;8.50;99.90
29729;DHT22;20055;51.498;11.960;2023-11-19T05:43:15;8.60;99.90
29729;DHT22;20055;51.498;11.960;2023-11-19T05:45:42;8.60;99.90
29729;DHT22;20055;51.498;11.960;2023-11-19T05:48:09;8.60;99.90
29729;DHT22;20055;51.498;11.960;2023-11-19T05:50:36;8.70;99.90
29729;DHT22;20055;51.498;11.960;2023-11-19T05:53:02;8.70;99.90
29729;DHT22;20055;51.498;11.960;2023-11-19T05:55:28;8.70;99.90
29729;DHT22;20055;51.498;11.960;2023-11-19T05:57:55;8.70;99.90
29729;DHT22;20055;51.498;11.960;2023-11-19T06:00:21;8.70;99.90
29729;DHT22;20055;51.498;11.960;2023-11-19T06:02:47;8.60;99.90
29729;DHT22;20055;51.498;11.960;2023-11-19T06:05:13;8.60;99.90
29729;DHT22;20055;51.498;11.960;2023-11-19T06:07:40;8.60;99.90
29729;DHT22;20055;51.498;11.960;2023-11-19T06:10:07;8.60;99.90
29729;DHT22;20055;51.498;11.960;2023-11-19T06:12:36;8.60;99.90
29729;DHT22;20055;51.498;11.960;2023-11-19T06:15:05;8.60;99.90
29729;DHT22;20055;51.498;11.960;2023-11-19T06:17:32;8.60;99.90
29729;DHT22;20055;51.498;11.960;2023-11-19T06:19:58;8.60;99.90
29729;DHT22;20055;51.498;11.960;2023-11-19T06:22:24;8.60;99.90
29729;DHT22;20055;51.498;11.960;2023-11-19T06:24:51;8.60;99.90
29729;DHT22;20055;51.498;11.960;2023-11-19T06:27:17;8.60;99.90
29729;DHT22;20055;51.498;11.960;2023-11-19T06:29:43;8.60;99.90
29729;DHT22;20055;51.498;11.960;2023-11-19T06:32:10;8.60;99.90
29729;DHT22;20055;51.498;11.960;2023-11-19T06:34:36;8.50;99.90
29729;DHT22;20055;51.498;11.960;2023-11-19T06:37:03;8.50;99.90
29729;DHT22;20055;51.498;11.960;2023-11-19T06:39:30;8.40;99.90
29729;DHT22;20055;51.498;11.960;2023-11-19T06:41:56;8.40;99.90
29729;DHT22;20055;51.498;11.960;2023-11-19T06:44:23;8.40;99.90
29729;DHT22;20055;51.498;11.960;2023-11-19T06:46:51;8.40;99.90
29729;DHT22;20055;51.498;11.960;2023-11-19T06:49:17;8.40;99.90
29729;DHT22;20055;51.498;11.960;2023-11-19T06:51:44;8.40;99.90
29729;DHT22;20055;51.498;11.960;2023-11-19T06:54:12;8.40;99.90
29729;DHT22;20055;51.498;11.960;2023-11-19T06:56:38;8.50;99.90
29729;DHT22;20055;51.498;11.960;2023-11-19T06:59:05;8.60;99.90
29729;DHT22;20055;51.498;11.960;2023-11-19T07:01:35;8.70;99.90
29729;DHT22;20055;51.498;11.960;2023-11-19T07:04:03;8.70;99.90
29729;DHT22;20055;51.498;11.960;2023-11-19T07:06:35;8.70;99.90
29729;DHT22;20055;51.498;11.960;2023-11-19T07:09:03;8.80;99.90
29729;DHT22;20055;51.498;11.960;2023-11-19T07:11:39;8.70;99.90
29729;DHT22;20055;51.498;11.960;2023-11-19T07:14:06;8.70;99.90
29729;DHT22;20055;51.498;11.960;2023-11-19T07:16:33;9.40;99.90
29729;DHT22;20055;51.498;11.960;2023-11-19T07:19:03;9.90;99.90
29729;DHT22;20055;51.498;11.960;2023-11-19T07:21:29;9.60;99.90
29729;DHT22;20055;51.498;11.960;2023-11-19T07:23:56;9.50;99.90
29729;DHT22;20055;51.498;11.960;2023-11-19T07:26:23;9.40;99.90
29729;DHT22;20055;51.498;11.960;2023-11-19T07:28:49;9.40;99.90
29729;DHT22;20055;51.498;11.960;2023-11-19T07:31:17;9.30;99.90
29729;DHT22;20055;51.498;11.960;2023-11-19T07:33:46;9.40;99.90
29729;DHT22;20055;51.498;11.960;2023-11-19T07:36:14;9.50;99.90
29729;DHT22;20055;51.498;11.960;2023-11-19T07:38:40;9.60;99.90
29729;DHT22;20055;51.498;11.960;2023-11-19T07:41:06;9.60;99.90
29729;DHT22;20055;51.498;11.960;2023-11-19T07:43:33;9.70;99.90
29729;DHT22;20055;51.498;11.960;2023-11-19T07:45:59;9.70;99.90
29729;DHT22;20055;51.498;11.960;2023-11-19T07:48:26;9.80;99.90
29729;DHT22;20055;51.498;11.960;2023-11-19T07:50:52;9.80;99.90
29729;DHT22;20055;51.498;11.960;2023-11-19T07:53:19;9.90;99.90
29729;DHT22;20055;51.498;11.960;2023-11-19T07:55:46;9.90;99.90
29729;DHT22;20055;51.498;11.960;2023-11-19T07:58:12;9.90;99.90
29729;DHT22;20055;51.498;11.960;2023-11-19T08:00:39;9.80;99.90
29729;DHT22;20055;51.498;11.960;2023-11-19T08:03:06;9.60;99.90
29729;DHT22;20055;51.498;11.960;2023-11-19T08:05:33;9.60;99.90
29729;DHT22;20055;51.498;11.960;2023-11-19T08:07:59;9.60;99.90
29729;DHT22;20055;51.498;11.960;2023-11-19T08:10:25;9.60;99.90
29729;DHT22;20055;51.498;11.960;2023-11-19T08:12:52;9.60;99.90
29729;DHT22;20055;51.498;11.960;2023-11-19T08:15:18;9.60;99.90
29729;DHT22;20055;51.498;11.960;2023-11-19T08:17:44;9.70;99.90
29729;DHT22;20055;51.498;11.960;2023-11-19T08:20:11;9.70;99.90
29729;DHT22;20055;51.498;11.960;2023-11-19T08:22:37;9.70;99.90
29729;DHT22;20055;51.498;11.960;2023-11-19T08:25:05;9.70;99.90
29729;DHT22;20055;51.498;11.960;2023-11-19T08:27:32;9.70;99.90
29729;DHT22;20055;51.498;11.960;2023-11-19T08:29:58;9.80;99.90
29729;DHT22;20055;51.498;11.960;2023-11-19T08:32:25;9.90;99.90
29729;DHT22;20055;51.498;11.960;2023-11-19T08:34:53;9.90;99.90
29729;DHT22;20055;51.498;11.960;2023-11-19T08:37:19;9.90;99.90
29729;DHT22;20055;51.498;11.960;2023-11-19T08:39:47;9.90;99.90
29729;DHT22;20055;51.498;11.960;2023-11-19T08:42:14;9.90;99.90
29729;DHT22;20055;51.498;11.960;2023-11-19T08:44:41;10.00;99.90
29729;DHT22;20055;51.498;11.960;2023-11-19T08:47:11;10.00;99.90
29729;DHT22;20055;51.498;11.960;2023-11-19T08:49:37;10.00;99.90
29729;DHT22;20055;51.498;11.960;2023-11-19T08:52:03;10.10;99.90
29729;DHT22;20055;51.498;11.960;2023-11-19T08:54:30;10.00;99.90
29729;DHT22;20055;51.498;11.960;2023-11-19T08:56:56;10.10;99.90
29729;DHT22;20055;51.498;11.960;2023-11-19T08:59:23;10.10;99.90
29729;DHT22;20055;51.498;11.960;2023-11-19T09:01:49;10.20;99.90
29729;DHT22;20055;51.498;11.960;2023-11-19T09:04:15;10.30;99.90
29729;DHT22;20055;51.498;11.960;2023-11-19T09:06:42;10.40;99.90
29729;DHT22;20055;51.498;11.960;2023-11-19T09:09:10;10.50;99.90
29729;DHT22;20055;51.498;11.960;2023-11-19T09:11:36;10.70;99.90
29729;DHT22;20055;51.498;11.960;2023-11-19T09:14:03;10.90;99.90
29729;DHT22;20055;51.498;11.960;2023-11-19T09:16:30;11.00;99.90
29729;DHT22;20055;51.498;11.960;2023-11-19T09:18:56;11.20;99.90
29729;DHT22;20055;51.498;11.960;2023-11-19T09:21:24;11.30;99.90
29729;DHT22;20055;51.498;11.960;2023-11-19T09:23:50;11.40;99.90
29729;DHT22;20055;51.498;11.960;2023-11-19T09:26:17;11.50;99.90
29729;DHT22;20055;51.498;11.960;2023-11-19T09:28:43;11.50;99.90
29729;DHT22;20055;51.498;11.960;2023-11-19T09:31:17;11.50;99.90
29729;DHT22;20055;51.498;11.960;2023-11-19T09:33:44;11.50;99.90
29729;DHT22;20055;51.498;11.960;2023-11-19T09:36:14;11.60;99.90
29729;DHT22;20055;51.498;11.960;2023-11-19T09:38:43;11.70;99.90
29729;DHT22;20055;51.498;11.960;2023-11-19T09:41:10;11.70;99.90
29729;DHT22;20055;51.498;11.960;2023-11-19T09:43:40;11.60;99.90
29729;DHT22;20055;51.498;11.960;2023-11-19T09:46:09;11.60;99.90
29729;DHT22;20055;51.498;11.960;2023-11-19T09:48:38;11.70;99.90
29729;DHT22;20055;51.498;11.960;2023-11-19T09:51:07;11.70;99.90
29729;DHT22;20055;51.498;11.960;2023-11-19T09:53:35;11.90;99.90
29729;DHT22;20055;51.498;11.960;2023-11-19T09:56:03;11.90;99.90
29729;DHT22;20055;51.498;11.960;2023-11-19T09:58:30;12.00;99.90
29729;DHT22;20055;51.498;11.960;2023-11-19T10:00:58;12.00;99.90
29729;DHT22;20055;51.498;11.960;2023-11-19T10:03:35;12.00;99.90
29729;DHT22;20055;51.498;11.960;2023-11-19T10:06:05;12.00;99.90
29729;DHT22;20055;51.498;11.960;2023-11-19T10:08:33;12.00;99.90
29729;DHT22;20055;51.498;11.960;2023-11-19T10:10:59;11.90;99.90
29729;DHT22;20055;51.498;11.960;2023-11-19T10:13:26;12.00;99.90
29729;DHT22;20055;51.498;11.960;2023-11-19T10:15:55;12.00;99.90
29729;DHT22;20055;51.498;11.960;2023-11-19T10:18:28;12.20;99.90
29729;DHT22;20055;51.498;11.960;2023-11-19T10:20:55;12.20;99.90
29729;DHT22;20055;51.498;11.960;2023-11-19T10:23:21;12.10;99.90
29729;DHT22;20055;51.498;11.960;2023-11-19T10:25:48;12.00;99.90
29729;DHT22;20055;51.498;11.960;2023-11-19T10:28:17;12.10;99.90
29729;DHT22;20055;51.498;11.960;2023-11-19T10:30:44;12.10;99.90
29729;DHT22;20055;51.498;11.960;2023-11-19T10:33:12;11.80;99.90
29729;DHT22;20055;51.498;11.960;2023-11-19T10:35:57;11.60;99.90
29729;DHT22;20055;51.498;11.960;2023-11-19T10:38:24;11.60;99.90
29729;DHT22;20055;51.498;11.960;2023-11-19T10:40:52;11.50;99.90
29729;DHT22;20055;51.498;11.960;2023-11-19T10:43:19;11.60;99.90
29729;DHT22;20055;51.498;11.960;2023-11-19T10:45:45;11.70;99.90
29729;DHT22;20055;51.498;11.960;2023-11-19T10:48:12;11.60;99.90
29729;DHT22;20055;51.498;11.960;2023-11-19T10:50:44;11.50;99.90
29729;DHT22;20055;51.498;11.960;2023-11-19T10:53:12;11.50;99.90
29729;DHT22;20055;51.498;11.960;2023-11-19T10:55:47;11.50;99.90
29729;DHT22;20055;51.498;11.960;2023-11-19T10:58:16;11.50;99.90
29729;DHT22;20055;51.498;11.960;2023-11-19T11:00:48;11.50;99.90
29729;DHT22;20055;51.498;11.960;2023-11-19T11:03:18;11.40;99.90
29729;DHT22;20055;51.498;11.960;2023-11-19T11:05:49;11.40;99.90
29729;DHT22;20055;51.498;11.960;2023-11-19T11:08:17;11.50;99.90
29729;DHT22;20055;51.498;11.960;2023-11-19T11:10:57;11.70;99.90
29729;DHT22;20055;51.498;11.960;2023-11-19T11:13:27;12.00;99.90
29729;DHT22;20055;51.498;11.960;2023-11-19T11:15:55;12.00;99.90
29729;DHT22;20055;51.498;11.960;2023-11-19T11:18:24;12.10;99.90
29729;DHT22;20055;51.498;11.960;2023-11-19T11:20:55;12.20;99.90
29729;DHT22;20055;51.498;11.960;2023-11-19T11:29:20;12.10;99.90
29729;DHT22;20055;51.498;11.960;2023-11-19T11:34:47;12.10;99.90
29729;DHT22;20055;51.498;11.960;2023-11-19T11:39:52;12.20;99.90
29729;DHT22;20055;51.498;11.960;2023-11-19T11:45:04;12.50;99.90
29729;DHT22;20055;51.498;11.960;2023-11-19T11:55:34;13.30;99.90
29729;DHT22;20055;51.498;11.960;2023-11-19T11:58:05;13.60;99.90
29729;DHT22;20055;51.498;11.960;2023-11-19T12:00:36;13.70;99.90
29729;DHT22;20055;51.498;11.960;2023-11-19T12:03:05;13.90;99.90
29729;DHT22;20055;51.498;11.960;2023-11-19T12:05:38;13.90;99.90
29729;DHT22;20055;51.498;11.960;2023-11-19T12:08:07;13.80;99.90
29729;DHT22;20055;51.498;11.960;2023-11-19T12:10:49;13.60;99.90
29729;DHT22;20055;51.498;11.960;2023-11-19T12:13:17;13.50;99.90
29729;DHT22;20055;51.498;11.960;2023-11-19T12:18:27;13.60;99.90
29729;DHT22;20055;51.498;11.960;2023-11-19T12:20:54;13.70;99.90
29729;DHT22;20055;51.498;11.960;2023-11-19T12:23:20;13.60;99.90
29729;DHT22;20055;51.498;11.960;2023-11-19T12:25:46;13.70;99.90
29729;DHT22;20055;51.498;11.960;2023-11-19T12:28:16;13.80;99.90
29729;DHT22;20055;51.498;11.960;2023-11-19T12:30:43;13.90;99.90
29729;DHT22;20055;51.498;11.960;2023-11-19T12:33:10;13.90;99.90
29729;DHT22;20055;51.498;11.960;2023-11-19T12:35:44;13.90;99.90
29729;DHT22;20055;51.498;11.960;2023-11-19T12:38:30;13.80;99.90
29729;DHT22;20055;51.498;11.960;2023-11-19T12:41:08;13.50;99.90
29729;DHT22;20055;51.498;11.960;2023-11-19T12:43:36;13.40;99.90
29729;DHT22;20055;51.498;11.960;2023-11-19T12:46:22;13.40;99.90
29729;DHT22;20055;51.498;11.960;2023-11-19T12:48:49;13.40;99.90
29729;DHT22;20055;51.498;11.960;2023-11-19T12:51:17;13.50;99.90
29729;DHT22;20055;51.498;11.960;2023-11-19T12:53:50;13.70;99.90
29729;DHT22;20055;51.498;11.960;2023-11-19T12:56:23;13.80;99.90
29729;DHT22;20055;51.498;11.960;2023-11-19T12:58:50;14.00;99.90
29729;DHT22;20055;51.498;11.960;2023-11-19T13:01:20;14.10;99.90
29729;DHT22;20055;51.498;11.960;2023-11-19T13:03:47;13.80;99.90
29729;DHT22;20055;51.498;11.960;2023-11-19T13:06:15;13.80;99.90
29729;DHT22;20055;51.498;11.960;2023-11-19T13:08:48;13.70;99.90
29729;DHT22;20055;51.498;11.960;2023-11-19T13:11:30;13.70;99.90
29729;DHT22;20055;51.498;11.960;2023-11-19T13:14:02;13.70;99.90
29729;DHT22;20055;51.498;11.960;2023-11-19T13:16:36;13.50;99.90
29729;DHT22;20055;51.498;11.960;2023-11-19T13:19:03;13.40;99.90
29729;DHT22;20055;51.498;11.960;2023-11-19T13:21:30;13.60;99.90
29729;DHT22;20055;51.498;11.960;2023-11-19T13:23:56;13.50;99.90
29729;DHT22;20055;51.498;11.960;2023-11-19T13:26:23;13.50;99.90
29729;DHT22;20055;51.498;11.960;2023-11-19T13:28:49;13.40;99.90
29729;DHT22;20055;51.498;11.960;2023-11-19T13:31:15;13.40;99.90
29729;DHT22;20055;51.498;11.960;2023-11-19T13:33:42;13.50;99.90
29729;DHT22;20055;51.498;11.960;2023-11-19T13:36:09;13.50;99.90
29729;DHT22;20055;51.498;11.960;2023-11-19T13:38:35;13.50;99.90
29729;DHT22;20055;51.498;11.960;2023-11-19T13:41:02;13.40;99.90
29729;DHT22;20055;51.498;11.960;2023-11-19T13:43:30;13.40;99.90
29729;DHT22;20055;51.498;11.960;2023-11-19T13:45:58;13.30;99.90
29729;DHT22;20055;51.498;11.960;2023-11-19T13:48:24;13.30;99.90
29729;DHT22;20055;51.498;11.960;2023-11-19T13:50:52;13.30;99.90
29729;DHT22;20055;51.498;11.960;2023-11-19T13:53:19;13.20;99.90
29729;DHT22;20055;51.498;11.960;2023-11-19T13:55:45;13.20;99.90
29729;DHT22;20055;51.498;11.960;2023-11-19T13:58:12;13.20;99.90
29729;DHT22;20055;51.498;11.960;2023-11-19T14:00:38;13.20;99.90
29729;DHT22;20055;51.498;11.960;2023-11-19T14:03:05;13.10;99.90
29729;DHT22;20055;51.498;11.960;2023-11-19T14:05:31;13.10;99.90
29729;DHT22;20055;51.498;11.960;2023-11-19T14:07:57;13.10;99.90
29729;DHT22;20055;51.498;11.960;2023-11-19T14:10:24;13.10;99.90
29729;DHT22;20055;51.498;11.960;2023-11-19T14:12:50;13.10;99.90
29729;DHT22;20055;51.498;11.960;2023-11-19T14:15:16;13.10;99.90
29729;DHT22;20055;51.498;11.960;2023-11-19T14:17:45;13.10;99.90
29729;DHT22;20055;51.498;11.960;2023-11-19T14:20:12;13.10;99.90
29729;DHT22;20055;51.498;11.960;2023-11-19T14:22:44;13.10;99.90
29729;DHT22;20055;51.498;11.960;2023-11-19T14:25:11;13.10;99.90
29729;DHT22;20055;51.498;11.960;2023-11-19T14:27:41;13.10;99.90
29729;DHT22;20055;51.498;11.960;2023-11-19T14:30:10;13.20;99.90
29729;DHT22;20055;51.498;11.960;2023-11-19T14:32:41;13.10;99.90
29729;DHT22;20055;51.498;11.960;2023-11-19T14:35:12;13.00;99.90
29729;DHT22;20055;51.498;11.960;2023-11-19T14:37:38;13.00;99.90
29729;DHT22;20055;51.498;11.960;2023-11-19T14:40:05;13.00;99.90
29729;DHT22;20055;51.498;11.960;2023-11-19T14:42:33;13.00;99.90
29729;DHT22;20055;51.498;11.960;2023-11-19T14:44:59;13.00;99.90
29729;DHT22;20055;51.498;11.960;2023-11-19T14:47:25;13.00;99.90
29729;DHT22;20055;51.498;11.960;2023-11-19T14:49:52;13.10;99.90
29729;DHT22;20055;51.498;11.960;2023-11-19T14:52:18;13.00;99.90
29729;DHT22;20055;51.498;11.960;2023-11-19T14:54:45;13.00;99.90
29729;DHT22;20055;51.498;11.960;2023-11-19T14:57:12;12.90;99.90
29729;DHT22;20055;51.498;11.960;2023-11-19T14:59:39;12.90;99.90
29729;DHT22;20055;51.498;11.960;2023-11-19T15:02:06;12.70;99.90
29729;DHT22;20055;51.498;11.960;2023-11-19T15:04:32;12.50;99.90
29729;DHT22;20055;51.498;11.960;2023-11-19T15:06:59;12.50;99.90
29729;DHT22;20055;51.498;11.960;2023-11-19T15:09:26;12.40;99.90
29729;DHT22;20055;51.498;11.960;2023-11-19T15:11:56;12.30;99.90
29729;DHT22;20055;51.498;11.960;2023-11-19T15:14:24;12.30;99.90
29729;DHT22;20055;51.498;11.960;2023-11-19T15:16:50;12.30;99.90
29729;DHT22;20055;51.498;11.960;2023-11-19T15:19:17;12.10;99.90
29729;DHT22;20055;51.498;11.960;2023-11-19T15:21:44;12.00;99.90
29729;DHT22;20055;51.498;11.960;2023-11-19T15:24:10;12.00;99.90
29729;DHT22;20055;51.498;11.960;2023-11-19T15:26:37;12.00;99.90
29729;DHT22;20055;51.498;11.960;2023-11-19T15:29:04;12.00;99.90
29729;DHT22;20055;51.498;11.960;2023-11-19T15:31:31;11.90;99.90
29729;DHT22;20055;51.498;11.960;2023-11-19T15:33:57;11.90;99.90
29729;DHT22;20055;51.498;11.960;2023-11-19T15:36:24;11.90;99.90
29729;DHT22;20055;51.498;11.960;2023-11-19T15:38:50;12.00;99.90
29729;DHT22;20055;51.498;11.960;2023-11-19T15:41:16;12.10;99.90
29729;DHT22;20055;51.498;11.960;2023-11-19T15:43:43;12.00;99.90
29729;DHT22;20055;51.498;11.960;2023-11-19T15:46:10;12.00;99.90
29729;DHT22;20055;51.498;11.960;2023-11-19T15:48:37;12.00;99.90
29729;DHT22;20055;51.498;11.960;2023-11-19T15:51:04;11.90;99.90
29729;DHT22;20055;51.498;11.960;2023-11-19T15:53:31;11.90;99.90
29729;DHT22;20055;51.498;11.960;2023-11-19T15:55:58;12.00;99.90